createdAt,value
2023-03-06T00:00:22.024Z,99904.48
2023-03-06T00:02:53.064Z,99901.40
2023-03-06T00:05:24.125Z,99900.47
2023-03-06T00:07:54.961Z,99898.66
2023-03-06T00:10:27.926Z,99894.88
2023-03-06T00:13:01.839Z,99891.40
2023-03-06T00:15:32.672Z,99890.21
2023-03-06T00:18:06.445Z,99884.70
2023-03-06T00:20:37.540Z,99886.17
2023-03-06T00:23:08.498Z,99881.85
2023-03-06T00:25:39.090Z,99881.52
2023-03-06T00:28:09.635Z,99883.63
2023-03-06T00:30:40.653Z,99876.01
2023-03-06T00:33:12.041Z,99878.40
2023-03-06T00:35:43.076Z,99873.89
2023-03-06T00:38:14.260Z,99871.55
2023-03-06T00:40:44.908Z,99873.42
2023-03-06T00:43:15.755Z,99871.52
2023-03-06T00:45:46.133Z,99869.36
2023-03-06T00:48:16.535Z,99869.52
2023-03-06T00:50:47.536Z,99870.42
2023-03-06T00:53:18.344Z,99859.09
2023-03-06T00:55:48.689Z,99865.60
2023-03-06T00:58:19.883Z,99863.02
2023-03-06T01:00:50.726Z,99861.55
2023-03-06T01:03:21.095Z,99849.97
2023-03-06T01:05:51.449Z,99853.46
2023-03-06T01:08:21.799Z,99849.85
2023-03-06T01:10:52.695Z,99851.23
2023-03-06T01:13:23.795Z,99843.52
2023-03-06T01:15:54.701Z,99843.94
2023-03-06T01:18:25.444Z,99846.30
2023-03-06T01:20:55.812Z,99840.80
2023-03-06T01:23:26.209Z,99843.08
2023-03-06T01:25:56.529Z,99838.02
2023-03-06T01:28:27.954Z,99839.88
2023-03-06T01:30:58.691Z,99838.74
2023-03-06T01:33:29.302Z,99836.06
2023-03-06T01:36:00.452Z,99834.81
2023-03-06T01:38:30.886Z,99833.39
2023-03-06T01:41:03.282Z,99831.78
2023-03-06T01:43:35.959Z,99830.67
2023-03-06T01:46:30.715Z,99827.28
2023-03-06T01:49:05.691Z,99821.24
2023-03-06T01:51:39.186Z,99815.00
2023-03-06T01:54:13.171Z,99811.92
2023-03-06T01:56:47.546Z,99813.33
2023-03-06T01:59:19.453Z,99810.14
2023-03-06T02:01:51.510Z,99809.48
2023-03-06T02:04:23.298Z,99807.02
2023-03-06T02:06:54.671Z,99803.71
2023-03-06T02:09:29.780Z,99802.91
2023-03-06T02:12:00.440Z,99803.14
2023-03-06T02:14:31.533Z,99799.77
2023-03-06T02:17:02.982Z,99798.17
2023-03-06T02:19:47.327Z,99796.52
2023-03-06T02:22:17.761Z,99799.27
2023-03-06T02:24:55.883Z,99795.96
2023-03-06T02:27:27.442Z,99789.73
2023-03-06T02:29:58.063Z,99789.93
2023-03-06T02:32:28.401Z,99789.30
2023-03-06T02:35:00.078Z,99787.59
2023-03-06T02:37:31.077Z,99785.12
2023-03-06T02:40:12.844Z,99780.69
2023-03-06T02:42:49.027Z,99778.92
2023-03-06T02:45:24.618Z,99773.14
2023-03-06T02:47:55.205Z,99772.49
2023-03-06T02:50:25.824Z,99770.45
2023-03-06T02:52:56.189Z,99765.27
2023-03-06T02:55:26.821Z,99765.62
2023-03-06T02:57:57.186Z,99759.83
2023-03-06T03:00:27.968Z,99756.02
2023-03-06T03:02:58.528Z,99754.48
2023-03-06T03:05:28.853Z,99752.27
2023-03-06T03:07:59.363Z,99754.04
2023-03-06T03:10:29.887Z,99751.39
2023-03-06T03:13:00.302Z,99749.88
2023-03-06T03:15:30.953Z,99756.04
2023-03-06T03:18:01.274Z,99749.02
2023-03-06T03:20:31.588Z,99745.09
2023-03-06T03:23:01.861Z,99742.95
2023-03-06T03:25:32.145Z,99740.53
2023-03-06T03:28:02.476Z,99737.44
2023-03-06T03:30:32.871Z,99729.70
2023-03-06T03:33:03.570Z,99732.98
2023-03-06T03:35:33.990Z,99733.43
2023-03-06T03:38:04.690Z,99729.80
2023-03-06T03:40:34.946Z,99731.42
2023-03-06T03:43:05.544Z,99726.86
2023-03-06T03:45:35.910Z,99725.49
2023-03-06T03:48:06.960Z,99719.62
2023-03-06T03:50:37.571Z,99717.30
2023-03-06T03:53:07.962Z,99713.50
2023-03-06T03:55:39.316Z,99711.65
2023-03-06T03:58:09.645Z,99705.43
2023-03-06T04:00:40.234Z,99705.64
2023-03-06T04:03:10.705Z,99703.98
2023-03-06T04:05:41.008Z,99703.31
2023-03-06T04:08:11.360Z,99702.64
2023-03-06T04:10:41.996Z,99706.45
2023-03-06T04:13:12.701Z,99703.35
2023-03-06T04:15:43.298Z,99698.54
2023-03-06T04:18:16.220Z,99700.90
2023-03-06T04:20:47.453Z,99695.19
2023-03-06T04:23:18.481Z,99695.55
2023-03-06T04:25:49.229Z,99693.46
2023-03-06T04:28:19.569Z,99693.61
2023-03-06T04:30:50.024Z,99693.05
2023-03-06T04:33:21.039Z,99690.24
2023-03-06T04:35:51.979Z,99690.36
2023-03-06T04:38:22.607Z,99684.05
2023-03-06T04:40:53.658Z,99685.98
2023-03-06T04:43:24.389Z,99685.23
2023-03-06T04:45:54.796Z,99689.76
2023-03-06T04:48:27.196Z,99686.33
2023-03-06T04:50:57.520Z,99682.91
2023-03-06T04:53:27.935Z,99680.67
2023-03-06T04:55:58.247Z,99684.91
2023-03-06T04:58:28.938Z,99679.56
2023-03-06T05:00:59.731Z,99684.00
2023-03-06T05:03:30.081Z,99681.15
2023-03-06T05:06:00.653Z,99678.16
2023-03-06T05:08:31.598Z,99675.89
2023-03-06T05:11:03.096Z,99678.56
2023-03-06T05:13:33.584Z,99676.45
2023-03-06T05:16:08.738Z,99674.45
2023-03-06T05:18:40.580Z,99673.05
2023-03-06T05:21:11.190Z,99669.02
2023-03-06T05:23:42.229Z,99674.83
2023-03-06T05:26:14.752Z,99673.34
2023-03-06T05:28:45.088Z,99672.98
2023-03-06T05:31:15.489Z,99672.48
2023-03-06T05:33:45.841Z,99666.02
2023-03-06T05:36:16.172Z,99662.34
2023-03-06T05:38:46.475Z,99664.23
2023-03-06T05:41:17.432Z,99664.77
2023-03-06T05:43:47.728Z,99661.44
2023-03-06T05:46:18.192Z,99658.54
2023-03-06T05:48:48.782Z,99659.67
2023-03-06T05:51:19.118Z,99664.52
2023-03-06T05:53:49.855Z,99660.72
2023-03-06T05:56:21.796Z,99658.94
2023-03-06T05:58:52.484Z,99651.17
2023-03-06T06:01:25.322Z,99650.52
2023-03-06T06:03:55.846Z,99656.38
2023-03-06T06:06:26.177Z,99654.45
2023-03-06T06:08:56.876Z,99653.80
2023-03-06T06:11:27.237Z,99652.52
2023-03-06T06:13:57.877Z,99655.13
2023-03-06T06:16:28.181Z,99656.41
2023-03-06T06:18:59.454Z,99656.52
2023-03-06T06:21:29.772Z,99655.68
2023-03-06T06:24:00.140Z,99656.09
2023-03-06T06:26:30.435Z,99654.89
2023-03-06T06:29:00.708Z,99655.61
2023-03-06T06:31:31.367Z,99653.62
2023-03-06T06:34:01.786Z,99653.27
2023-03-06T06:36:32.321Z,99654.09
2023-03-06T06:39:03.564Z,99653.64
2023-03-06T06:41:51.133Z,99653.16
2023-03-06T06:44:25.309Z,99651.67
2023-03-06T06:49:50.228Z,99654.23
2023-03-06T06:52:21.388Z,99655.66
2023-03-06T06:54:51.748Z,99651.32
2023-03-06T06:57:22.202Z,99654.60
2023-03-06T06:59:54.183Z,99650.82
2023-03-06T07:02:25.006Z,99651.90
2023-03-06T07:05:05.063Z,99650.13
2023-03-06T07:07:39.311Z,99652.64
2023-03-06T07:10:16.431Z,99655.30
2023-03-06T07:12:46.859Z,99660.00
2023-03-06T07:15:18.883Z,99657.32
2023-03-06T07:17:50.245Z,99658.10
2023-03-06T07:20:21.848Z,99652.88
2023-03-06T07:22:52.589Z,99654.89
2023-03-06T07:25:23.994Z,99657.35
2023-03-06T07:27:55.830Z,99661.16
2023-03-06T07:30:26.758Z,99658.15
2023-03-06T07:32:59.775Z,99660.33
2023-03-06T07:35:30.716Z,99660.94
2023-03-06T07:38:01.513Z,99661.55
2023-03-06T07:40:32.238Z,99657.42
2023-03-06T07:43:17.146Z,99656.77
2023-03-06T07:45:56.102Z,99656.39
2023-03-06T07:48:26.517Z,99658.45
2023-03-06T07:51:02.660Z,99657.59
2023-03-06T07:53:34.335Z,99656.08
2023-03-06T07:56:08.749Z,99651.81
2023-03-06T07:58:40.672Z,99657.55
2023-03-06T08:01:13.078Z,99658.45
2023-03-06T08:03:43.514Z,99660.02
2023-03-06T08:06:16.339Z,99660.88
2023-03-06T08:08:49.141Z,99661.30
2023-03-06T08:11:22.262Z,99666.91
2023-03-06T08:13:53.589Z,99660.98
2023-03-06T08:16:25.810Z,99664.58
2023-03-06T08:18:57.072Z,99662.39
2023-03-06T08:21:28.936Z,99668.39
2023-03-06T08:24:00.017Z,99674.11
2023-03-06T08:26:34.702Z,99669.65
2023-03-06T08:29:06.035Z,99671.13
2023-03-06T08:31:38.048Z,99672.22
2023-03-06T08:34:11.845Z,99672.45
2023-03-06T08:36:42.568Z,99670.77
2023-03-06T08:39:14.240Z,99675.58
2023-03-06T08:41:45.461Z,99673.84
2023-03-06T08:44:15.976Z,99675.46
2023-03-06T08:46:46.331Z,99668.24
2023-03-06T08:49:16.966Z,99669.62
2023-03-06T08:51:47.551Z,99669.79
2023-03-06T08:54:18.046Z,99675.20
2023-03-06T08:56:48.402Z,99672.25
2023-03-06T08:59:18.773Z,99672.50
2023-03-06T09:01:49.473Z,99675.89
2023-03-06T09:04:20.092Z,99679.30
2023-03-06T09:06:50.545Z,99677.75
2023-03-06T09:09:20.884Z,99678.69
2023-03-06T09:11:53.579Z,99678.39
2023-03-06T09:14:23.898Z,99683.48
2023-03-06T09:16:54.533Z,99682.73
2023-03-06T09:19:25.853Z,99688.23
2023-03-06T09:21:57.835Z,99686.19
2023-03-06T09:24:28.455Z,99690.94
2023-03-06T09:26:58.792Z,99690.84
2023-03-06T09:29:29.579Z,99690.64
2023-03-06T09:32:00.156Z,99693.13
2023-03-06T09:34:30.615Z,99695.52
2023-03-06T09:37:02.527Z,99696.73
2023-03-06T09:39:32.905Z,99699.73
2023-03-06T09:42:04.009Z,99699.13
2023-03-06T09:44:36.384Z,99701.59
2023-03-06T09:47:28.624Z,99696.19
2023-03-06T09:50:11.400Z,99693.67
2023-03-06T09:52:53.529Z,99690.45
2023-03-06T09:55:27.849Z,99694.16
2023-03-06T09:58:07.173Z,99696.42
2023-03-06T10:00:41.816Z,99696.45
2023-03-06T10:03:22.569Z,99698.98
2023-03-06T10:05:58.417Z,99697.40
2023-03-06T10:08:35.657Z,99698.35
2023-03-06T10:11:09.617Z,99695.41
2023-03-06T10:13:44.209Z,99694.97
2023-03-06T10:16:24.241Z,99694.16
2023-03-06T10:18:55.655Z,99696.81
2023-03-06T10:21:44.513Z,99697.48
2023-03-06T10:24:25.075Z,99697.72
2023-03-06T10:27:05.571Z,99698.39
2023-03-06T10:29:56.381Z,99696.55
2023-03-06T10:32:48.221Z,99697.81
2023-03-06T10:35:19.707Z,99692.58
2023-03-06T10:37:50.638Z,99691.33
2023-03-06T10:40:36.959Z,99688.96
2023-03-06T10:43:12.487Z,99686.81
2023-03-06T10:45:52.354Z,99684.97
2023-03-06T10:48:25.096Z,99687.91
2023-03-06T10:51:18.038Z,99692.11
2023-03-06T10:53:55.407Z,99694.50
2023-03-06T10:56:34.612Z,99696.54
2023-03-06T10:59:16.210Z,99696.17
2023-03-06T11:01:49.304Z,99697.54
2023-03-06T11:04:26.561Z,99699.96
2023-03-06T11:07:15.736Z,99699.98
2023-03-06T11:10:01.753Z,99701.31
2023-03-06T11:12:33.597Z,99701.64
2023-03-06T11:15:20.954Z,99696.23
2023-03-06T11:18:00.963Z,99699.86
2023-03-06T11:20:48.864Z,99700.05
2023-03-06T11:23:27.321Z,99697.39
2023-03-06T11:26:03.362Z,99690.42
2023-03-06T11:28:40.346Z,99695.38
2023-03-06T11:31:15.461Z,99696.70
2023-03-06T11:33:52.691Z,99697.99
2023-03-06T11:36:30.491Z,99701.09
2023-03-06T11:39:00.894Z,99697.92
2023-03-06T11:41:39.018Z,99694.13
2023-03-06T11:44:23.052Z,99689.95
2023-03-06T11:47:02.872Z,99691.15
2023-03-06T11:49:40.396Z,99683.93
2023-03-06T11:52:18.511Z,99693.49
2023-03-06T11:54:53.074Z,99692.97
2023-03-06T11:57:26.696Z,99688.29
2023-03-06T12:00:12.895Z,99685.10
2023-03-06T12:03:10.664Z,99683.38
2023-03-06T12:05:43.722Z,99688.94
2023-03-06T12:08:38.752Z,99685.67
2023-03-06T12:14:14.373Z,99699.77
2023-03-06T12:17:06.942Z,99703.45
2023-03-06T12:19:52.225Z,99707.70
2023-03-06T12:22:38.449Z,99702.73
2023-03-06T12:25:25.561Z,99698.52
2023-03-06T12:28:09.473Z,99691.23
2023-03-06T12:31:02.460Z,99685.22
2023-03-06T12:33:41.099Z,99684.52
2023-03-06T12:36:30.780Z,99683.95
2023-03-06T12:39:17.504Z,99683.57
2023-03-06T12:42:04.951Z,99682.08
2023-03-06T12:45:00.701Z,99676.55
2023-03-06T12:47:37.110Z,99667.14
2023-03-06T12:50:20.294Z,99661.92
2023-03-06T12:52:51.980Z,99650.21
2023-03-06T12:55:25.743Z,99655.02
2023-03-06T12:57:56.289Z,99654.85
2023-03-06T13:01:04.922Z,99657.84
2023-03-06T13:03:54.754Z,99660.81
2023-03-06T13:06:49.896Z,99657.53
2023-03-06T13:09:32.890Z,99658.73
2023-03-06T13:12:39.440Z,99663.17
2023-03-06T13:15:43.520Z,99663.23
2023-03-06T13:18:57.190Z,99659.08
2023-03-06T13:21:46.217Z,99658.47
2023-03-06T13:24:25.200Z,99655.56
2023-03-06T13:27:00.247Z,99653.27
2023-03-06T13:30:04.072Z,99656.59
2023-03-06T13:32:36.413Z,99655.65
2023-03-06T13:35:43.145Z,99659.67
2023-03-06T13:41:45.681Z,99654.52
2023-03-06T13:44:47.338Z,99656.84
2023-03-06T13:48:10.619Z,99657.28
2023-03-06T13:50:49.649Z,99655.48
2023-03-06T13:54:08.358Z,99651.45
2023-03-06T13:56:58.441Z,99653.70
2023-03-06T13:59:56.982Z,99651.21
2023-03-06T14:02:55.832Z,99650.81
2023-03-06T14:05:35.637Z,99643.16
2023-03-06T14:08:11.020Z,99642.11
2023-03-06T14:10:42.899Z,99637.61
2023-03-06T14:13:20.801Z,99633.90
2023-03-06T14:15:53.123Z,99634.60
2023-03-06T14:18:27.365Z,99632.80
2023-03-06T14:21:00.531Z,99628.73
2023-03-06T14:23:35.327Z,99627.88
2023-03-06T14:26:15.507Z,99628.88
2023-03-06T14:28:55.049Z,99628.58
2023-03-06T14:31:27.220Z,99629.13
2023-03-06T14:33:59.945Z,99633.61
2023-03-06T14:36:35.698Z,99628.77
2023-03-06T14:39:09.820Z,99627.88
2023-03-06T14:41:40.998Z,99628.30
2023-03-06T14:44:17.761Z,99623.64
2023-03-06T14:46:49.793Z,99625.11
2023-03-06T14:49:22.073Z,99620.16
2023-03-06T14:51:54.133Z,99618.50
2023-03-06T14:54:28.718Z,99618.23
2023-03-06T14:57:05.862Z,99615.76
2023-03-06T14:59:43.379Z,99610.75
2023-03-06T15:02:18.290Z,99609.01
2023-03-06T15:04:52.498Z,99607.63
2023-03-06T15:07:27.632Z,99605.14
2023-03-06T15:09:58.823Z,99608.08
2023-03-06T15:12:38.581Z,99601.92
2023-03-06T15:15:28.694Z,99602.40
2023-03-06T15:17:59.866Z,99598.06
2023-03-06T15:20:52.062Z,99596.70
2023-03-06T15:23:26.584Z,99595.38
2023-03-06T15:25:59.692Z,99600.61
2023-03-06T15:28:35.617Z,99602.13
2023-03-06T15:31:22.222Z,99601.96
2023-03-06T15:34:23.275Z,99602.02
2023-03-06T15:36:56.945Z,99602.90
2023-03-06T15:39:38.393Z,99596.16
2023-03-06T15:42:20.433Z,99598.52
2023-03-06T15:44:54.048Z,99597.91
2023-03-06T15:47:25.425Z,99597.72
2023-03-06T15:49:56.871Z,99597.39
2023-03-06T15:52:27.881Z,99598.58
2023-03-06T15:54:58.783Z,99604.60
2023-03-06T15:57:30.204Z,99600.55
2023-03-06T16:00:01.879Z,99598.38
2023-03-06T16:02:33.356Z,99598.29
2023-03-06T16:05:05.713Z,99600.66
2023-03-06T16:07:36.241Z,99597.41
2023-03-06T16:10:07.772Z,99592.33
2023-03-06T16:12:38.470Z,99591.17
2023-03-06T16:15:20.981Z,99587.90
2023-03-06T16:17:52.503Z,99586.65
2023-03-06T16:20:25.974Z,99589.02
2023-03-06T16:22:57.112Z,99584.83
2023-03-06T16:25:29.475Z,99585.38
2023-03-06T16:28:01.048Z,99586.48
2023-03-06T16:30:35.376Z,99586.56
2023-03-06T16:33:06.481Z,99583.64
2023-03-06T16:35:36.952Z,99580.99
2023-03-06T16:38:07.405Z,99581.56
2023-03-06T16:40:41.244Z,99582.22
2023-03-06T16:43:13.550Z,99585.02
2023-03-06T16:45:45.006Z,99579.67
2023-03-06T16:48:18.238Z,99579.34
2023-03-06T16:50:48.691Z,99582.05
2023-03-06T16:53:19.749Z,99577.21
2023-03-06T16:55:50.434Z,99578.66
2023-03-06T16:58:21.812Z,99575.11
2023-03-06T17:00:52.550Z,99578.81
2023-03-06T17:03:25.143Z,99579.54
2023-03-06T17:05:56.261Z,99574.14
2023-03-06T17:08:27.023Z,99575.52
2023-03-06T17:10:57.545Z,99575.70
2023-03-06T17:13:28.090Z,99571.70
2023-03-06T17:15:59.459Z,99571.56
2023-03-06T17:18:32.300Z,99572.92
2023-03-06T17:21:02.849Z,99577.88
2023-03-06T17:23:33.468Z,99578.66
2023-03-06T17:26:09.860Z,99581.60
2023-03-06T17:28:40.596Z,99579.80
2023-03-06T17:31:19.249Z,99576.80
2023-03-06T17:33:51.297Z,99579.23
2023-03-06T17:36:22.159Z,99582.98
2023-03-06T17:38:55.344Z,99584.16
2023-03-06T17:41:26.578Z,99590.66
2023-03-06T17:43:58.178Z,99590.63
2023-03-06T17:46:28.650Z,99593.29
2023-03-06T17:48:59.288Z,99594.35
2023-03-06T17:51:29.842Z,99592.58
2023-03-06T17:54:00.445Z,99598.80
2023-03-06T17:56:30.808Z,99592.17
2023-03-06T17:59:01.516Z,99590.16
2023-03-06T18:01:32.751Z,99590.84
2023-03-06T18:04:06.456Z,99590.58
2023-03-06T18:06:38.923Z,99588.09
2023-03-06T18:09:11.116Z,99583.80
2023-03-06T18:11:42.715Z,99584.50
2023-03-06T18:14:13.451Z,99581.59
2023-03-06T18:16:43.890Z,99578.23
2023-03-06T18:19:14.290Z,99574.58
2023-03-06T18:21:47.288Z,99572.72
2023-03-06T18:24:18.262Z,99572.42
2023-03-06T18:26:48.953Z,99570.45
2023-03-06T18:29:19.293Z,99571.45
2023-03-06T18:31:50.398Z,99571.52
2023-03-06T18:34:21.037Z,99572.02
2023-03-06T18:36:52.785Z,99569.14
2023-03-06T18:39:23.236Z,99567.66
2023-03-06T18:41:55.813Z,99569.36
2023-03-06T18:44:26.185Z,99568.23
2023-03-06T18:46:56.508Z,99564.10
2023-03-06T18:49:27.519Z,99565.78
2023-03-06T18:51:58.157Z,99562.31
2023-03-06T18:54:29.651Z,99560.57
2023-03-06T18:57:00.381Z,99562.61
2023-03-06T18:59:30.893Z,99561.76
2023-03-06T19:02:01.172Z,99559.48
2023-03-06T19:04:32.013Z,99559.42
2023-03-06T19:07:02.563Z,99559.83
2023-03-06T19:09:33.578Z,99552.08
2023-03-06T19:12:04.393Z,99551.09
2023-03-06T19:14:36.263Z,99546.88
2023-03-06T19:17:07.112Z,99537.46
2023-03-06T19:19:37.725Z,99533.16
2023-03-06T19:22:08.514Z,99525.45
2023-03-06T19:24:39.122Z,99526.55
2023-03-06T19:27:11.413Z,99525.71
2023-03-06T19:29:42.326Z,99526.38
2023-03-06T19:32:12.800Z,99521.85
2023-03-06T19:34:43.356Z,99518.27
2023-03-06T19:37:13.978Z,99520.00
2023-03-06T19:39:45.371Z,99515.58
2023-03-06T19:42:15.962Z,99513.64
2023-03-06T19:44:46.979Z,99509.42
2023-03-06T19:47:17.625Z,99507.79
2023-03-06T19:49:48.298Z,99506.30
2023-03-06T19:52:19.305Z,99501.02
2023-03-06T19:54:49.942Z,99501.62
2023-03-06T19:57:20.890Z,99498.99
2023-03-06T19:59:53.027Z,99490.58
2023-03-06T20:02:26.596Z,99484.27
2023-03-06T20:04:57.246Z,99485.15
2023-03-06T20:07:27.769Z,99483.38
2023-03-06T20:10:00.725Z,99482.52
2023-03-06T20:12:35.581Z,99480.06
2023-03-06T20:15:07.765Z,99483.02
2023-03-06T20:17:40.392Z,99476.91
2023-03-06T20:20:13.442Z,99478.94
2023-03-06T20:22:43.707Z,99472.45
2023-03-06T20:25:14.456Z,99468.14
2023-03-06T20:27:45.149Z,99464.71
2023-03-06T20:30:17.093Z,99463.91
2023-03-06T20:32:48.236Z,99461.52
2023-03-06T20:35:19.313Z,99456.38
2023-03-06T20:37:50.660Z,99457.86
2023-03-06T20:40:21.737Z,99454.02
2023-03-06T20:42:52.722Z,99448.60
2023-03-06T20:45:23.154Z,99447.25
2023-03-06T20:47:56.173Z,99448.70
2023-03-06T20:50:27.008Z,99440.48
2023-03-06T20:52:58.767Z,99436.11
2023-03-06T20:55:29.089Z,99435.09
2023-03-06T20:58:00.020Z,99433.98
2023-03-06T21:00:30.385Z,99427.75
2023-03-06T21:03:00.696Z,99425.23
2023-03-06T21:05:31.031Z,99424.27
2023-03-06T21:08:01.300Z,99419.45
2023-03-06T21:10:31.924Z,99414.58
2023-03-06T21:13:02.582Z,99410.13
2023-03-06T21:15:33.292Z,99403.31
2023-03-06T21:18:03.659Z,99398.73
2023-03-06T21:20:34.580Z,99395.45
2023-03-06T21:23:05.352Z,99391.05
2023-03-06T21:25:36.663Z,99391.33
2023-03-06T21:28:07.007Z,99384.48
2023-03-06T21:30:37.332Z,99381.63
2023-03-06T21:33:10.524Z,99377.95
2023-03-06T21:35:42.326Z,99371.42
2023-03-06T21:38:14.442Z,99366.77
2023-03-06T21:40:45.680Z,99361.52
2023-03-06T21:43:17.456Z,99359.80
2023-03-06T21:45:52.663Z,99354.58
2023-03-06T21:48:23.453Z,99351.08
2023-03-06T21:50:54.117Z,99346.52
2023-03-06T21:53:25.270Z,99343.17
2023-03-06T21:55:56.084Z,99342.80
2023-03-06T21:58:26.377Z,99336.45
2023-03-06T22:00:57.097Z,99329.85
2023-03-06T22:03:28.726Z,99329.02
2023-03-06T22:06:07.777Z,99320.91
2023-03-06T22:08:38.310Z,99313.33
2023-03-06T22:11:10.706Z,99308.90
2023-03-06T22:13:41.530Z,99305.27
2023-03-06T22:16:12.674Z,99302.66
2023-03-06T22:18:46.976Z,99299.41
2023-03-06T22:21:19.873Z,99292.84
2023-03-06T22:23:52.740Z,99289.60
2023-03-06T22:26:23.413Z,99284.67
2023-03-06T22:28:53.833Z,99276.59
2023-03-06T22:31:26.175Z,99268.73
2023-03-06T22:33:58.744Z,99262.23
2023-03-06T22:36:31.528Z,99260.39
2023-03-06T22:39:04.108Z,99263.02
2023-03-06T22:41:34.480Z,99254.34
2023-03-06T22:44:05.630Z,99252.30
2023-03-06T22:46:36.131Z,99248.16
2023-03-06T22:49:06.821Z,99242.52
2023-03-06T22:51:37.661Z,99240.33
2023-03-06T22:54:08.796Z,99238.27
2023-03-06T22:56:39.298Z,99233.82
2023-03-06T22:59:09.781Z,99232.05
2023-03-06T23:01:40.518Z,99223.91
2023-03-06T23:04:12.072Z,99220.59
2023-03-06T23:06:44.622Z,99212.13
2023-03-06T23:09:20.358Z,99203.64
2023-03-06T23:11:51.025Z,99200.41
2023-03-06T23:14:21.720Z,99198.41
2023-03-06T23:16:52.662Z,99191.88
2023-03-06T23:19:23.018Z,99184.18
2023-03-06T23:21:53.340Z,99178.68
2023-03-06T23:24:23.666Z,99171.32
2023-03-06T23:26:53.969Z,99163.36
2023-03-06T23:29:24.306Z,99159.15
2023-03-06T23:31:54.877Z,99155.66
2023-03-06T23:34:25.359Z,99156.66
2023-03-06T23:36:56.197Z,99147.86
2023-03-06T23:39:26.518Z,99142.16
2023-03-06T23:41:57.225Z,99137.65
2023-03-06T23:44:27.905Z,99136.49
2023-03-06T23:46:58.227Z,99129.23
2023-03-06T23:49:28.565Z,99122.08
2023-03-06T23:51:59.585Z,99117.08
2023-03-06T23:54:30.124Z,99107.47
2023-03-06T23:57:01.068Z,99102.67
2023-03-06T23:59:31.753Z,99096.64
